sensor_id;sensor_type;location;lat;lon;timestamp;P1;durP1;ratioP1;P2;durP2;ratioP2
43154;SDS011;34212;51.018;13.586;2022-11-25T00:02:52;8.02;;;3.30;;
43154;SDS011;34212;51.018;13.586;2022-11-25T00:07:53;5.80;;;3.50;;
43154;SDS011;34212;51.018;13.586;2022-11-25T00:12:55;8.75;;;3.53;;
43154;SDS011;34212;51.018;13.586;2022-11-25T00:17:56;5.50;;;3.20;;
43154;SDS011;34212;51.018;13.586;2022-11-25T00:22:57;7.38;;;3.47;;
43154;SDS011;34212;51.018;13.586;2022-11-25T00:27:59;10.80;;;3.22;;
43154;SDS011;34212;51.018;13.586;2022-11-25T00:33:00;4.75;;;3.00;;
43154;SDS011;34212;51.018;13.586;2022-11-25T00:38:02;5.75;;;2.78;;
43154;SDS011;34212;51.018;13.586;2022-11-25T00:43:05;9.00;;;3.40;;
43154;SDS011;34212;51.018;13.586;2022-11-25T00:48:25;5.03;;;3.15;;
43154;SDS011;34212;51.018;13.586;2022-11-25T00:53:29;6.43;;;2.80;;
43154;SDS011;34212;51.018;13.586;2022-11-25T00:58:31;8.15;;;3.88;;
43154;SDS011;34212;51.018;13.586;2022-11-25T01:03:32;5.15;;;3.10;;
43154;SDS011;34212;51.018;13.586;2022-11-25T01:08:35;8.30;;;3.20;;
43154;SDS011;34212;51.018;13.586;2022-11-25T01:18:40;5.47;;;2.70;;
43154;SDS011;34212;51.018;13.586;2022-11-25T01:23:42;6.80;;;2.93;;
43154;SDS011;34212;51.018;13.586;2022-11-25T01:28:46;7.55;;;2.97;;
43154;SDS011;34212;51.018;13.586;2022-11-25T01:38:56;7.72;;;3.45;;
43154;SDS011;34212;51.018;13.586;2022-11-25T01:49:04;5.85;;;3.60;;
43154;SDS011;34212;51.018;13.586;2022-11-25T01:54:10;6.53;;;3.13;;
43154;SDS011;34212;51.018;13.586;2022-11-25T01:59:16;7.35;;;3.05;;
43154;SDS011;34212;51.018;13.586;2022-11-25T02:04:18;8.43;;;3.63;;
43154;SDS011;34212;51.018;13.586;2022-11-25T02:09:22;6.10;;;3.45;;
43154;SDS011;34212;51.018;13.586;2022-11-25T02:14:23;7.88;;;3.72;;
43154;SDS011;34212;51.018;13.586;2022-11-25T02:19:38;6.68;;;3.35;;
43154;SDS011;34212;51.018;13.586;2022-11-25T02:24:50;7.60;;;3.13;;
43154;SDS011;34212;51.018;13.586;2022-11-25T02:29:58;4.30;;;3.00;;
43154;SDS011;34212;51.018;13.586;2022-11-25T02:34:59;4.78;;;3.25;;
43154;SDS011;34212;51.018;13.586;2022-11-25T02:40:00;5.75;;;3.65;;
43154;SDS011;34212;51.018;13.586;2022-11-25T02:45:03;7.80;;;3.20;;
43154;SDS011;34212;51.018;13.586;2022-11-25T02:50:06;5.07;;;3.15;;
43154;SDS011;34212;51.018;13.586;2022-11-25T02:55:08;7.03;;;3.00;;
43154;SDS011;34212;51.018;13.586;2022-11-25T03:00:09;7.60;;;2.83;;
43154;SDS011;34212;51.018;13.586;2022-11-25T03:05:13;7.88;;;3.30;;
43154;SDS011;34212;51.018;13.586;2022-11-25T03:10:14;5.43;;;2.60;;
43154;SDS011;34212;51.018;13.586;2022-11-25T03:15:16;4.33;;;2.73;;
43154;SDS011;34212;51.018;13.586;2022-11-25T03:20:18;6.22;;;2.80;;
43154;SDS011;34212;51.018;13.586;2022-11-25T03:25:20;4.77;;;2.37;;
43154;SDS011;34212;51.018;13.586;2022-11-25T03:30:24;6.75;;;2.40;;
43154;SDS011;34212;51.018;13.586;2022-11-25T03:35:31;8.93;;;2.80;;
43154;SDS011;34212;51.018;13.586;2022-11-25T03:40:33;5.63;;;2.35;;
43154;SDS011;34212;51.018;13.586;2022-11-25T03:45:34;3.50;;;2.20;;
43154;SDS011;34212;51.018;13.586;2022-11-25T03:50:39;3.55;;;2.30;;
43154;SDS011;34212;51.018;13.586;2022-11-25T03:55:42;6.35;;;2.92;;
43154;SDS011;34212;51.018;13.586;2022-11-25T04:00:44;4.72;;;2.13;;
43154;SDS011;34212;51.018;13.586;2022-11-25T04:05:45;5.57;;;2.40;;
43154;SDS011;34212;51.018;13.586;2022-11-25T04:10:50;5.25;;;2.20;;
43154;SDS011;34212;51.018;13.586;2022-11-25T04:15:56;3.95;;;2.30;;
43154;SDS011;34212;51.018;13.586;2022-11-25T04:20:59;5.30;;;2.28;;
43154;SDS011;34212;51.018;13.586;2022-11-25T04:26:01;6.38;;;1.80;;
43154;SDS011;34212;51.018;13.586;2022-11-25T04:31:12;6.32;;;2.22;;
43154;SDS011;34212;51.018;13.586;2022-11-25T04:36:16;5.65;;;2.00;;
43154;SDS011;34212;51.018;13.586;2022-11-25T04:41:18;5.75;;;2.00;;
43154;SDS011;34212;51.018;13.586;2022-11-25T04:46:23;8.05;;;2.20;;
43154;SDS011;34212;51.018;13.586;2022-11-25T04:51:34;5.28;;;1.75;;
43154;SDS011;34212;51.018;13.586;2022-11-25T04:56:39;7.75;;;2.22;;
43154;SDS011;34212;51.018;13.586;2022-11-25T05:01:41;10.27;;;2.20;;
43154;SDS011;34212;51.018;13.586;2022-11-25T05:07:09;3.35;;;1.60;;
43154;SDS011;34212;51.018;13.586;2022-11-25T05:12:13;5.63;;;2.75;;
43154;SDS011;34212;51.018;13.586;2022-11-25T05:17:20;2.83;;;1.95;;
43154;SDS011;34212;51.018;13.586;2022-11-25T05:22:25;3.58;;;1.70;;
43154;SDS011;34212;51.018;13.586;2022-11-25T05:27:30;7.85;;;1.98;;
43154;SDS011;34212;51.018;13.586;2022-11-25T05:32:36;6.78;;;2.47;;
43154;SDS011;34212;51.018;13.586;2022-11-25T05:37:41;3.75;;;1.60;;
43154;SDS011;34212;51.018;13.586;2022-11-25T05:42:44;3.10;;;1.60;;
43154;SDS011;34212;51.018;13.586;2022-11-25T05:47:46;4.43;;;1.73;;
43154;SDS011;34212;51.018;13.586;2022-11-25T05:52:52;5.80;;;2.10;;
43154;SDS011;34212;51.018;13.586;2022-11-25T05:57:54;4.72;;;2.08;;
43154;SDS011;34212;51.018;13.586;2022-11-25T06:02:55;6.45;;;2.03;;
43154;SDS011;34212;51.018;13.586;2022-11-25T06:07:57;4.50;;;1.77;;
43154;SDS011;34212;51.018;13.586;2022-11-25T06:13:00;7.07;;;2.03;;
43154;SDS011;34212;51.018;13.586;2022-11-25T06:18:02;2.97;;;1.58;;
43154;SDS011;34212;51.018;13.586;2022-11-25T06:23:06;6.68;;;2.10;;
43154;SDS011;34212;51.018;13.586;2022-11-25T06:28:10;6.82;;;2.30;;
43154;SDS011;34212;51.018;13.586;2022-11-25T06:33:16;7.07;;;2.20;;
43154;SDS011;34212;51.018;13.586;2022-11-25T06:38:20;5.80;;;1.98;;
43154;SDS011;34212;51.018;13.586;2022-11-25T06:43:21;6.03;;;2.20;;
43154;SDS011;34212;51.018;13.586;2022-11-25T06:48:23;3.85;;;1.92;;
43154;SDS011;34212;51.018;13.586;2022-11-25T06:53:24;6.88;;;2.78;;
43154;SDS011;34212;51.018;13.586;2022-11-25T06:58:26;6.27;;;1.70;;
43154;SDS011;34212;51.018;13.586;2022-11-25T07:03:36;4.72;;;1.95;;
43154;SDS011;34212;51.018;13.586;2022-11-25T07:08:38;3.55;;;1.80;;
43154;SDS011;34212;51.018;13.586;2022-11-25T07:13:40;4.57;;;2.00;;
43154;SDS011;34212;51.018;13.586;2022-11-25T07:18:41;6.43;;;2.22;;
43154;SDS011;34212;51.018;13.586;2022-11-25T07:23:44;6.38;;;2.00;;
43154;SDS011;34212;51.018;13.586;2022-11-25T07:28:47;5.43;;;1.80;;
43154;SDS011;34212;51.018;13.586;2022-11-25T07:33:53;7.03;;;1.80;;
43154;SDS011;34212;51.018;13.586;2022-11-25T07:39:04;5.25;;;2.00;;
43154;SDS011;34212;51.018;13.586;2022-11-25T07:44:09;5.85;;;1.85;;
43154;SDS011;34212;51.018;13.586;2022-11-25T07:49:22;4.95;;;2.35;;
43154;SDS011;34212;51.018;13.586;2022-11-25T07:54:27;3.67;;;1.60;;
43154;SDS011;34212;51.018;13.586;2022-11-25T07:59:29;4.63;;;1.98;;
43154;SDS011;34212;51.018;13.586;2022-11-25T08:04:30;9.07;;;1.55;;
43154;SDS011;34212;51.018;13.586;2022-11-25T08:09:31;9.50;;;2.47;;
43154;SDS011;34212;51.018;13.586;2022-11-25T08:14:33;8.45;;;1.90;;
43154;SDS011;34212;51.018;13.586;2022-11-25T08:19:35;5.57;;;1.60;;
43154;SDS011;34212;51.018;13.586;2022-11-25T08:24:37;4.90;;;1.83;;
43154;SDS011;34212;51.018;13.586;2022-11-25T08:29:38;6.80;;;1.80;;
43154;SDS011;34212;51.018;13.586;2022-11-25T08:34:40;6.32;;;2.35;;
43154;SDS011;34212;51.018;13.586;2022-11-25T08:39:44;6.45;;;1.65;;
43154;SDS011;34212;51.018;13.586;2022-11-25T08:44:54;4.38;;;1.60;;
43154;SDS011;34212;51.018;13.586;2022-11-25T08:49:56;10.90;;;1.80;;
43154;SDS011;34212;51.018;13.586;2022-11-25T08:54:57;6.55;;;1.45;;
43154;SDS011;34212;51.018;13.586;2022-11-25T08:59:59;7.25;;;1.77;;
43154;SDS011;34212;51.018;13.586;2022-11-25T09:05:00;4.22;;;1.40;;
43154;SDS011;34212;51.018;13.586;2022-11-25T09:10:02;5.47;;;1.60;;
43154;SDS011;34212;51.018;13.586;2022-11-25T09:15:04;7.33;;;1.90;;
43154;SDS011;34212;51.018;13.586;2022-11-25T09:20:06;5.25;;;1.60;;
43154;SDS011;34212;51.018;13.586;2022-11-25T09:25:08;8.32;;;1.83;;
43154;SDS011;34212;51.018;13.586;2022-11-25T09:30:09;9.00;;;2.45;;
43154;SDS011;34212;51.018;13.586;2022-11-25T09:35:11;6.20;;;1.70;;
43154;SDS011;34212;51.018;13.586;2022-11-25T10:02:44;2.70;;;1.60;;
43154;SDS011;34212;51.018;13.586;2022-11-25T10:08:02;9.68;;;1.83;;
43154;SDS011;34212;51.018;13.586;2022-11-25T10:13:17;10.73;;;2.33;;
43154;SDS011;34212;51.018;13.586;2022-11-25T10:18:44;7.82;;;1.90;;
43154;SDS011;34212;51.018;13.586;2022-11-25T10:23:56;8.77;;;2.25;;
43154;SDS011;34212;51.018;13.586;2022-11-25T10:34:22;4.88;;;1.60;;
43154;SDS011;34212;51.018;13.586;2022-11-25T10:39:30;5.30;;;1.95;;
43154;SDS011;34212;51.018;13.586;2022-11-25T10:44:35;4.70;;;1.63;;
43154;SDS011;34212;51.018;13.586;2022-11-25T10:55:29;9.27;;;1.83;;
43154;SDS011;34212;51.018;13.586;2022-11-25T11:05:34;8.95;;;1.80;;
43154;SDS011;34212;51.018;13.586;2022-11-25T11:11:07;6.13;;;1.80;;
43154;SDS011;34212;51.018;13.586;2022-11-25T11:16:30;7.53;;;1.67;;
43154;SDS011;34212;51.018;13.586;2022-11-25T11:21:37;5.53;;;1.50;;
43154;SDS011;34212;51.018;13.586;2022-11-25T11:26:41;5.40;;;1.60;;
43154;SDS011;34212;51.018;13.586;2022-11-25T11:31:44;5.75;;;2.22;;
43154;SDS011;34212;51.018;13.586;2022-11-25T11:42:01;4.85;;;1.63;;
43154;SDS011;34212;51.018;13.586;2022-11-25T12:03:03;3.60;;;1.75;;
43154;SDS011;34212;51.018;13.586;2022-11-25T12:08:15;5.63;;;1.55;;
43154;SDS011;34212;51.018;13.586;2022-11-25T12:13:26;5.93;;;1.70;;
43154;SDS011;34212;51.018;13.586;2022-11-25T12:18:40;6.47;;;1.50;;
43154;SDS011;34212;51.018;13.586;2022-11-25T12:23:48;8.35;;;1.40;;
43154;SDS011;34212;51.018;13.586;2022-11-25T12:29:00;5.90;;;1.77;;
43154;SDS011;34212;51.018;13.586;2022-11-25T12:40:03;4.75;;;1.60;;
43154;SDS011;34212;51.018;13.586;2022-11-25T12:45:20;3.55;;;1.42;;
43154;SDS011;34212;51.018;13.586;2022-11-25T12:50:28;5.07;;;1.73;;
43154;SDS011;34212;51.018;13.586;2022-11-25T12:55:53;3.78;;;1.75;;
43154;SDS011;34212;51.018;13.586;2022-11-25T13:17:20;3.92;;;1.65;;
43154;SDS011;34212;51.018;13.586;2022-11-25T13:22:24;3.78;;;1.75;;
43154;SDS011;34212;51.018;13.586;2022-11-25T13:27:30;3.90;;;1.77;;
43154;SDS011;34212;51.018;13.586;2022-11-25T13:32:36;5.13;;;1.60;;
43154;SDS011;34212;51.018;13.586;2022-11-25T13:37:40;4.45;;;1.55;;
43154;SDS011;34212;51.018;13.586;2022-11-25T13:42:42;3.10;;;1.52;;
43154;SDS011;34212;51.018;13.586;2022-11-25T13:47:46;4.53;;;2.08;;
43154;SDS011;34212;51.018;13.586;2022-11-25T13:53:02;3.97;;;2.00;;
43154;SDS011;34212;51.018;13.586;2022-11-25T14:13:53;5.57;;;1.90;;
43154;SDS011;34212;51.018;13.586;2022-11-25T14:24:52;4.40;;;2.33;;
43154;SDS011;34212;51.018;13.586;2022-11-25T14:30:04;7.03;;;3.03;;
43154;SDS011;34212;51.018;13.586;2022-11-25T14:35:09;3.65;;;2.05;;
43154;SDS011;34212;51.018;13.586;2022-11-25T14:40:22;5.78;;;2.22;;
43154;SDS011;34212;51.018;13.586;2022-11-25T14:45:42;5.93;;;1.95;;
43154;SDS011;34212;51.018;13.586;2022-11-25T14:56:23;3.13;;;1.88;;
43154;SDS011;34212;51.018;13.586;2022-11-25T15:01:31;7.35;;;3.55;;
43154;SDS011;34212;51.018;13.586;2022-11-25T15:06:34;3.47;;;1.90;;
43154;SDS011;34212;51.018;13.586;2022-11-25T15:11:37;4.38;;;2.22;;
43154;SDS011;34212;51.018;13.586;2022-11-25T15:16:39;4.50;;;1.95;;
43154;SDS011;34212;51.018;13.586;2022-11-25T15:21:43;7.03;;;3.28;;
43154;SDS011;34212;51.018;13.586;2022-11-25T15:27:16;3.15;;;1.80;;
43154;SDS011;34212;51.018;13.586;2022-11-25T15:32:29;5.80;;;2.00;;
43154;SDS011;34212;51.018;13.586;2022-11-25T15:37:32;4.68;;;2.08;;
43154;SDS011;34212;51.018;13.586;2022-11-25T15:42:34;4.13;;;2.22;;
43154;SDS011;34212;51.018;13.586;2022-11-25T15:47:35;6.28;;;2.78;;
43154;SDS011;34212;51.018;13.586;2022-11-25T15:52:37;8.25;;;3.50;;
43154;SDS011;34212;51.018;13.586;2022-11-25T15:57:41;6.75;;;3.70;;
43154;SDS011;34212;51.018;13.586;2022-11-25T16:18:42;6.70;;;3.45;;
43154;SDS011;34212;51.018;13.586;2022-11-25T16:24:22;5.75;;;3.30;;
43154;SDS011;34212;51.018;13.586;2022-11-25T16:34:31;5.35;;;3.80;;
43154;SDS011;34212;51.018;13.586;2022-11-25T16:39:33;9.32;;;3.92;;
43154;SDS011;34212;51.018;13.586;2022-11-25T16:44:34;8.88;;;4.45;;
43154;SDS011;34212;51.018;13.586;2022-11-25T16:49:37;8.95;;;4.95;;
43154;SDS011;34212;51.018;13.586;2022-11-25T16:54:39;7.18;;;4.30;;
43154;SDS011;34212;51.018;13.586;2022-11-25T16:59:41;10.02;;;4.57;;
43154;SDS011;34212;51.018;13.586;2022-11-25T17:04:46;6.65;;;4.22;;
43154;SDS011;34212;51.018;13.586;2022-11-25T17:09:48;8.80;;;5.70;;
43154;SDS011;34212;51.018;13.586;2022-11-25T17:14:49;7.80;;;4.32;;
43154;SDS011;34212;51.018;13.586;2022-11-25T17:19:51;6.53;;;4.07;;
43154;SDS011;34212;51.018;13.586;2022-11-25T17:24:53;6.35;;;4.07;;
43154;SDS011;34212;51.018;13.586;2022-11-25T17:29:57;7.95;;;4.18;;
43154;SDS011;34212;51.018;13.586;2022-11-25T17:35:01;7.63;;;4.25;;
43154;SDS011;34212;51.018;13.586;2022-11-25T17:40:02;6.28;;;4.10;;
43154;SDS011;34212;51.018;13.586;2022-11-25T17:45:14;9.30;;;4.10;;
43154;SDS011;34212;51.018;13.586;2022-11-25T17:50:22;5.15;;;3.60;;
43154;SDS011;34212;51.018;13.586;2022-11-25T17:55:25;9.68;;;4.70;;
43154;SDS011;34212;51.018;13.586;2022-11-25T18:00:27;7.35;;;4.50;;
43154;SDS011;34212;51.018;13.586;2022-11-25T18:05:29;10.38;;;5.50;;
43154;SDS011;34212;51.018;13.586;2022-11-25T18:10:30;7.18;;;4.60;;
43154;SDS011;34212;51.018;13.586;2022-11-25T18:15:32;10.55;;;4.88;;
43154;SDS011;34212;51.018;13.586;2022-11-25T18:20:34;12.23;;;4.78;;
43154;SDS011;34212;51.018;13.586;2022-11-25T18:25:36;10.05;;;4.15;;
43154;SDS011;34212;51.018;13.586;2022-11-25T18:36:25;9.20;;;3.67;;
43154;SDS011;34212;51.018;13.586;2022-11-25T18:41:52;6.55;;;3.42;;
43154;SDS011;34212;51.018;13.586;2022-11-25T18:46:58;7.13;;;2.72;;
43154;SDS011;34212;51.018;13.586;2022-11-25T18:52:38;7.63;;;3.35;;
43154;SDS011;34212;51.018;13.586;2022-11-25T18:57:46;7.65;;;3.25;;
43154;SDS011;34212;51.018;13.586;2022-11-25T19:15:48;10.32;;;4.30;;
43154;SDS011;34212;51.018;13.586;2022-11-25T19:20:56;9.18;;;4.90;;
43154;SDS011;34212;51.018;13.586;2022-11-25T19:27:34;11.07;;;4.75;;
43154;SDS011;34212;51.018;13.586;2022-11-25T19:33:22;9.60;;;5.25;;
43154;SDS011;34212;51.018;13.586;2022-11-25T19:39:04;12.27;;;6.00;;
43154;SDS011;34212;51.018;13.586;2022-11-25T19:44:15;11.15;;;6.05;;
43154;SDS011;34212;51.018;13.586;2022-11-25T19:49:17;8.80;;;6.07;;
43154;SDS011;34212;51.018;13.586;2022-11-25T19:54:19;11.82;;;6.32;;
43154;SDS011;34212;51.018;13.586;2022-11-25T19:59:21;11.40;;;6.68;;
43154;SDS011;34212;51.018;13.586;2022-11-25T20:04:22;9.40;;;6.25;;
43154;SDS011;34212;51.018;13.586;2022-11-25T20:09:24;10.18;;;7.57;;
43154;SDS011;34212;51.018;13.586;2022-11-25T20:14:25;11.27;;;6.35;;
43154;SDS011;34212;51.018;13.586;2022-11-25T20:19:27;11.70;;;7.03;;
43154;SDS011;34212;51.018;13.586;2022-11-25T20:24:28;9.93;;;6.90;;
43154;SDS011;34212;51.018;13.586;2022-11-25T20:29:30;11.10;;;7.53;;
43154;SDS011;34212;51.018;13.586;2022-11-25T20:34:31;11.38;;;7.95;;
43154;SDS011;34212;51.018;13.586;2022-11-25T20:39:41;11.70;;;7.72;;
43154;SDS011;34212;51.018;13.586;2022-11-25T20:44:44;12.35;;;7.43;;
43154;SDS011;34212;51.018;13.586;2022-11-25T20:49:47;13.40;;;8.57;;
43154;SDS011;34212;51.018;13.586;2022-11-25T20:54:48;14.93;;;8.33;;
43154;SDS011;34212;51.018;13.586;2022-11-25T20:59:50;14.88;;;8.25;;
43154;SDS011;34212;51.018;13.586;2022-11-25T21:04:51;16.83;;;10.20;;
43154;SDS011;34212;51.018;13.586;2022-11-25T21:09:53;12.73;;;8.38;;
43154;SDS011;34212;51.018;13.586;2022-11-25T21:14:54;12.77;;;8.73;;
43154;SDS011;34212;51.018;13.586;2022-11-25T21:19:56;15.65;;;9.52;;
43154;SDS011;34212;51.018;13.586;2022-11-25T21:24:57;15.13;;;9.75;;
43154;SDS011;34212;51.018;13.586;2022-11-25T21:29:59;15.30;;;9.55;;
43154;SDS011;34212;51.018;13.586;2022-11-25T21:35:00;21.20;;;10.65;;
43154;SDS011;34212;51.018;13.586;2022-11-25T21:40:04;13.98;;;10.10;;
43154;SDS011;34212;51.018;13.586;2022-11-25T21:45:08;18.93;;;11.03;;
43154;SDS011;34212;51.018;13.586;2022-11-25T21:50:16;22.20;;;10.52;;
43154;SDS011;34212;51.018;13.586;2022-11-25T21:55:18;17.13;;;11.20;;
43154;SDS011;34212;51.018;13.586;2022-11-25T22:00:21;20.05;;;10.65;;
43154;SDS011;34212;51.018;13.586;2022-11-25T22:05:24;16.92;;;10.27;;
43154;SDS011;34212;51.018;13.586;2022-11-25T22:10:26;21.92;;;11.20;;
43154;SDS011;34212;51.018;13.586;2022-11-25T22:15:27;18.90;;;12.57;;
43154;SDS011;34212;51.018;13.586;2022-11-25T22:20:30;18.58;;;11.13;;
43154;SDS011;34212;51.018;13.586;2022-11-25T22:25:33;19.30;;;10.77;;
43154;SDS011;34212;51.018;13.586;2022-11-25T22:30:34;22.67;;;13.38;;
43154;SDS011;34212;51.018;13.586;2022-11-25T22:35:36;20.75;;;12.77;;
43154;SDS011;34212;51.018;13.586;2022-11-25T22:40:37;22.92;;;11.98;;
43154;SDS011;34212;51.018;13.586;2022-11-25T22:45:39;20.95;;;13.13;;
43154;SDS011;34212;51.018;13.586;2022-11-25T22:50:40;22.42;;;11.77;;
43154;SDS011;34212;51.018;13.586;2022-11-25T22:55:44;19.88;;;12.48;;
43154;SDS011;34212;51.018;13.586;2022-11-25T23:00:46;24.43;;;12.40;;
43154;SDS011;34212;51.018;13.586;2022-11-25T23:05:48;20.45;;;12.27;;
43154;SDS011;34212;51.018;13.586;2022-11-25T23:10:51;23.88;;;12.88;;
43154;SDS011;34212;51.018;13.586;2022-11-25T23:15:55;22.63;;;12.32;;
43154;SDS011;34212;51.018;13.586;2022-11-25T23:20:59;23.73;;;12.68;;
43154;SDS011;34212;51.018;13.586;2022-11-25T23:26:00;21.88;;;12.98;;
43154;SDS011;34212;51.018;13.586;2022-11-25T23:31:02;21.42;;;12.50;;
43154;SDS011;34212;51.018;13.586;2022-11-25T23:36:08;25.73;;;13.73;;
43154;SDS011;34212;51.018;13.586;2022-11-25T23:41:13;29.67;;;14.15;;
43154;SDS011;34212;51.018;13.586;2022-11-25T23:46:18;38.28;;;14.98;;
43154;SDS011;34212;51.018;13.586;2022-11-25T23:51:23;30.02;;;14.13;;
43154;SDS011;34212;51.018;13.586;2022-11-25T23:56:26;23.83;;;13.88;;
